METAR Data
IDs: Format: Raw Decoded Include TAF

Data at: 1557 UTC 03 Jun 2020

KBWI 031554Z 23011G16KT 10SM SCT095 BKN150 BKN250 31/17 A2973 RMK AO2 SLP064 T03060167
KBWI 031454Z 27012KT 10SM FEW095 BKN150 BKN200 BKN250 30/16 A2971 RMK AO2 SLP060 T03000161 58013
KBWI 031354Z 26008KT 10SM FEW095 SCT150 BKN200 BKN250 28/17 A2972 RMK AO2 SLP063 T02830167
KBWI 031254Z 23007KT 180V260 10SM BKN200 27/16 A2974 RMK AO2 SLP070 T02670161
KBWI 031154Z 25009KT 10SM SCT160 BKN200 OVC250 24/15 A2975 RMK AO2 SLP073 T02440150 10244 20167 58007
KBWI 031054Z 24009KT 10SM SCT160 BKN220 BKN250 22/15 A2976 RMK AO2 SLP074 T02220150
KBWI 030954Z 24009KT 10SM SCT170 BKN220 OVC250 22/14 A2977 RMK AO2 SLP079 T02170144
KBWI 030854Z 24004KT 10SM SCT220 OVC250 21/15 A2977 RMK AO2 SLP080 T02060150 56005
KBWI 030754Z 23005KT 10SM OVC250 21/14 A2977 RMK AO2 SLP081 T02060144
KBWI 030654Z 25005KT 10SM BKN250 20/14 A2978 RMK AO2 SLP083 T02000144
KBWI 030554Z 25003KT 10SM SCT250 17/13 A2979 RMK AO2 SLP086 T01670128 10244 20161 58021
KBWI 030454Z 23003KT 10SM FEW070 18/12 A2982 RMK AO2 SLP097 T01780122 402560111
KBWI 030354Z 00000KT 10SM FEW070 FEW250 18/12 A2983 RMK AO2 SLP100 T01830122
KBWI 030254Z 18003KT 10SM FEW250 19/12 A2985 RMK AO2 SLP107 T01940117 58004
KBWI 030154Z 00000KT 10SM FEW085 FEW250 21/12 A2986 RMK AO2 SLP112 T02060117
KBWI 030054Z 16003KT 10SM SCT100 SCT250 22/11 A2986 RMK AO2 SLP112 T02220111
KBWI 022354Z 20004KT 10SM FEW100 SCT250 24/10 A2986 RMK AO2 SLP111 T02440100 10256 20228 56017
KBWI 022254Z 20006KT 10SM FEW100 SCT250 25/09 A2987 RMK AO2 SLP113 ACC DSNT NE T02500094
KBWI 022154Z 20008KT 10SM FEW100 SCT250 24/08 A2989 RMK AO2 SLP120 T02440078
KBWI 022054Z 22011G16KT 10SM FEW060 SCT100 SCT250 26/07 A2991 RMK AO2 SLP128 T02560067 57033
KBWI 021954Z 19003KT 10SM BKN070 BKN110 23/08 A2994 RMK AO2 SLP139 T02330083
KBWI 021854Z 21005KT 10SM BKN080 OVC110 23/07 A2998 RMK AO2 SLP151 T02330067
KBWI 021754Z 00000KT 10SM SCT080 BKN110 OVC150 23/07 A3001 RMK AO2 SLP161 60000 T02280072 10233 20156 58024
KBWI 021654Z 34004KT 10SM SCT065 BKN085 BKN100 OVC150 21/07 A3005 RMK AO2 SLP176 T02110067
KBWI 021554Z 32004KT 10SM BKN060 OVC100 21/08 A3007 RMK AO2 SLP180 T02060078
KBWI 021454Z 29006KT 10SM BKN065 BKN100 OVC150 21/08 A3008 RMK AO2 RAB44E53 SLP186 P0000 60000 T02060083 58008
KBWI 021354Z 26006KT 10SM BKN075 BKN100 OVC150 18/09 A3010 RMK AO2 SLP191 T01780094
KBWI 021254Z 26007KT 10SM BKN085 BKN100 OVC150 16/09 A3012 RMK AO2 SLP198 T01610094
KBWI 021154Z 22005KT 10SM FEW060 BKN110 BKN150 OVC250 16/09 A3011 RMK AO2 SLP194 T01560089 10156 20111 58006
KBWI 021054Z 23004KT 10SM FEW060 SCT110 BKN150 BKN250 14/08 A3011 RMK AO2 SLP195 T01440083
KBWI 020954Z 22004KT 10SM BKN150 BKN240 14/08 A3013 RMK AO2 SLP201 T01440078
KBWI 020854Z 25003KT 10SM BKN150 OVC240 12/08 A3013 RMK AO2 SLP201 T01220078 56007
KBWI 020754Z 00000KT 10SM BKN250 12/07 A3013 RMK AO2 SLP202 T01170067
KBWI 020654Z 23003KT 10SM SCT250 11/07 A3014 RMK AO2 SLP205 T01110067
KBWI 020554Z 00000KT 10SM FEW250 14/06 A3015 RMK AO2 SLP208 T01390061 10217 20139 58009
KBWI 020454Z 24004KT 10SM FEW250 16/05 A3016 RMK AO2 SLP211 T01560050 402440083